Time;durP1;ratioP1;P1;durP2;ratioP2;P2;SDS_P1;SDS_P2;PMS_P1;PMS_P2;Temp;Humidity;BMP_temperature;BMP_pressure;BME280_temperature;BME280_humidity;BME280_pressure;Samples;Min_cycle;Max_cycle;Signal;HPM_P1;HPM_P2
2022/11/27 00:01:43;;;;;;;6.65;5.15;;;;;;;;;;5059432;28;20240;-66
2022/11/27 00:04:11;;;;;;;4.90;4.40;;;;;;;;;;5059709;28;20205;-66
2022/11/27 00:06:40;;;;;;;5.82;5.22;;;;;;;;;;5058762;28;20216;-66
2022/11/27 00:09:11;;;;;;;5.30;4.80;;;;;;;;;;5059009;28;20205;-66
2022/11/27 00:11:39;;;;;;;5.93;5.32;;;;;;;;;;5058854;28;20236;-66
2022/11/27 00:14:07;;;;;;;5.65;4.60;;;;;;;;;;5058728;28;20582;-65
2022/11/27 00:16:35;;;;;;;4.93;4.53;;;;;;;;;;5058988;28;20205;-66
2022/11/27 00:19:03;;;;;;;5.18;4.68;;;;;;;;;;5058328;28;20228;-66
2022/11/27 00:21:31;;;;;;;6.10;4.97;;;;;;;;;;5058705;28;20205;-65
2022/11/27 00:24:00;;;;;;;5.10;4.50;;;;;;;;;;5059347;28;20488;-66
2022/11/27 00:26:30;;;;;;;5.43;4.60;;;;;;;;;;5059297;28;20205;-65
2022/11/27 00:28:58;;;;;;;5.47;4.53;;;;;;;;;;5058897;28;20236;-66
2022/11/27 00:31:28;;;;;;;4.80;4.30;;;;;;;;;;5059449;28;20205;-66
2022/11/27 00:33:55;;;;;;;4.70;4.18;;;;;;;;;;5059130;28;20205;-66
2022/11/27 00:36:23;;;;;;;4.28;3.88;;;;;;;;;;5057822;28;20656;-66
2022/11/27 00:38:51;;;;;;;4.85;4.05;;;;;;;;;;5059259;28;20232;-66
2022/11/27 00:41:20;;;;;;;4.47;4.07;;;;;;;;;;5058554;28;20213;-66
2022/11/27 00:43:50;;;;;;;4.00;3.70;;;;;;;;;;5049475;28;20205;-66
2022/11/27 00:46:18;;;;;;;4.82;3.88;;;;;;;;;;5047027;28;20212;-66
2022/11/27 00:48:46;;;;;;;4.50;4.10;;;;;;;;;;5040868;28;20205;-66
2022/11/27 00:51:15;;;;;;;4.30;3.90;;;;;;;;;;5039128;28;20212;-66
2022/11/27 00:53:43;;;;;;;4.35;3.95;;;;;;;;;;5038840;28;20206;-66
2022/11/27 00:56:10;;;;;;;4.07;3.67;;;;;;;;;;5038995;28;20210;-66
2022/11/27 00:58:38;;;;;;;4.60;4.10;;;;;;;;;;5038306;28;20225;-66
2022/11/27 01:01:08;;;;;;;4.70;3.85;;;;;;;;;;5038118;28;20522;-66
2022/11/27 01:03:36;;;;;;;3.72;3.33;;;;;;;;;;5038501;28;20668;-66
2022/11/27 01:06:05;;;;;;;4.15;3.75;;;;;;;;;;5038012;28;20301;-66
2022/11/27 01:08:33;;;;;;;3.88;3.50;;;;;;;;;;5038186;28;20208;-66
2022/11/27 01:11:01;;;;;;;3.97;3.58;;;;;;;;;;5038288;28;20673;-66
2022/11/27 01:13:29;;;;;;;4.00;3.60;;;;;;;;;;5038242;28;20506;-66
2022/11/27 01:16:00;;;;;;;3.60;3.30;;;;;;;;;;5038311;28;20206;-66
2022/11/27 01:18:30;;;;;;;3.42;3.13;;;;;;;;;;5038333;28;20299;-67
2022/11/27 01:20:58;;;;;;;3.85;3.45;;;;;;;;;;5038426;28;20280;-66
2022/11/27 01:23:26;;;;;;;3.70;3.30;;;;;;;;;;5038398;28;20216;-66
2022/11/27 01:25:54;;;;;;;3.53;3.00;;;;;;;;;;5038283;28;20205;-66
2022/11/27 01:28:24;;;;;;;3.53;3.22;;;;;;;;;;5038384;28;20200;-66
2022/11/27 01:30:51;;;;;;;3.80;3.42;;;;;;;;;;5038356;28;20305;-66
2022/11/27 01:33:20;;;;;;;3.63;3.33;;;;;;;;;;5038302;28;20283;-66
2022/11/27 01:35:55;;;;;;;3.60;3.30;;;;;;;;;;5038312;28;20213;-66
2022/11/27 01:38:23;;;;;;;5.45;4.28;;;;;;;;;;5037941;28;20235;-66
2022/11/27 01:40:51;;;;;;;5.45;3.90;;;;;;;;;;5038330;28;20308;-66
2022/11/27 01:43:19;;;;;;;4.60;3.75;;;;;;;;;;5040811;28;20201;-66
2022/11/27 01:45:46;;;;;;;5.05;3.80;;;;;;;;;;5056146;28;20208;-66
2022/11/27 01:48:15;;;;;;;4.10;3.17;;;;;;;;;;5058314;28;20543;-66
2022/11/27 01:50:43;;;;;;;4.03;3.63;;;;;;;;;;5057910;28;20232;-66
2022/11/27 01:53:14;;;;;;;4.00;3.60;;;;;;;;;;5040082;28;20205;-66
2022/11/27 01:55:45;;;;;;;4.03;3.63;;;;;;;;;;5038007;28;20288;-66
2022/11/27 01:58:14;;;;;;;3.90;3.20;;;;;;;;;;5037623;28;20259;-66
2022/11/27 02:00:42;;;;;;;4.90;3.35;;;;;;;;;;5037804;28;20244;-65
2022/11/27 02:03:09;;;;;;;3.80;3.40;;;;;;;;;;5054152;28;20200;-65
2022/11/27 02:05:37;;;;;;;5.15;3.58;;;;;;;;;;5056792;28;20204;-65
2022/11/27 02:08:10;;;;;;;5.43;3.50;;;;;;;;;;5056274;28;20211;-66
2022/11/27 02:10:44;;;;;;;4.07;3.22;;;;;;;;;;5056729;28;20500;-66
2022/11/27 02:13:14;;;;;;;4.18;3.10;;;;;;;;;;5038935;28;20224;-66
2022/11/27 02:15:44;;;;;;;3.70;3.25;;;;;;;;;;5037295;28;20494;-65
2022/11/27 02:18:16;;;;;;;3.40;3.10;;;;;;;;;;5036879;28;20227;-66
2022/11/27 02:20:52;;;;;;;3.13;2.83;;;;;;;;;;5037747;28;20267;-66
2022/11/27 02:23:35;;;;;;;3.33;3.03;;;;;;;;;;5037297;28;20482;-66
2022/11/27 02:26:12;;;;;;;3.40;3.10;;;;;;;;;;4994533;28;20284;-65
2022/11/27 02:28:44;;;;;;;3.38;3.08;;;;;;;;;;5037691;28;20541;-66
2022/11/27 02:31:17;;;;;;;3.40;3.10;;;;;;;;;;5042600;28;20549;-66
2022/11/27 02:33:47;;;;;;;4.47;3.13;;;;;;;;;;5057216;28;20244;-66
2022/11/27 02:36:19;;;;;;;3.58;2.75;;;;;;;;;;5057018;28;20267;-66
2022/11/27 02:38:50;;;;;;;2.95;2.53;;;;;;;;;;5057246;28;20319;-66
2022/11/27 02:41:20;;;;;;;2.83;2.63;;;;;;;;;;5051207;28;20202;-66
2022/11/27 02:43:49;;;;;;;3.05;2.58;;;;;;;;;;5037461;28;20531;-66
2022/11/27 02:46:19;;;;;;;2.67;2.45;;;;;;;;;;5037381;28;20221;-66
2022/11/27 02:48:48;;;;;;;2.80;2.60;;;;;;;;;;5037359;28;20209;-66
2022/11/27 02:51:17;;;;;;;2.75;2.55;;;;;;;;;;5042528;28;20201;-66
2022/11/27 02:53:46;;;;;;;2.97;2.58;;;;;;;;;;5057013;28;20500;-66
2022/11/27 02:56:17;;;;;;;2.75;2.47;;;;;;;;;;5057017;28;20216;-66
2022/11/27 02:58:46;;;;;;;2.97;2.67;;;;;;;;;;5058895;28;20229;-66
2022/11/27 03:01:15;;;;;;;2.50;2.30;;;;;;;;;;5055809;28;20261;-66
2022/11/27 03:03:46;;;;;;;3.20;2.72;;;;;;;;;;5041113;28;20209;-66
2022/11/27 03:06:17;;;;;;;2.42;2.22;;;;;;;;;;5040822;28;20205;-66
2022/11/27 03:08:47;;;;;;;2.30;2.10;;;;;;;;;;5041224;28;20595;-66
2022/11/27 03:11:16;;;;;;;2.40;2.20;;;;;;;;;;5046014;28;20215;-67
2022/11/27 03:13:45;;;;;;;2.50;2.30;;;;;;;;;;5061000;28;20212;-66
2022/11/27 03:16:16;;;;;;;2.70;2.50;;;;;;;;;;5060896;28;20251;-66
2022/11/27 03:18:51;;;;;;;2.53;2.33;;;;;;;;;;5060916;28;20230;-65
2022/11/27 03:21:22;;;;;;;2.55;2.33;;;;;;;;;;5055658;28;20223;-66
2022/11/27 03:23:50;;;;;;;2.30;2.00;;;;;;;;;;5040699;28;20206;-66
2022/11/27 03:26:18;;;;;;;2.60;2.40;;;;;;;;;;5040354;28;20566;-65
2022/11/27 03:28:47;;;;;;;2.45;2.25;;;;;;;;;;5040379;28;20285;-66
2022/11/27 03:31:14;;;;;;;2.40;2.20;;;;;;;;;;5044917;28;20209;-66
2022/11/27 03:33:42;;;;;;;2.72;2.30;;;;;;;;;;5060472;28;20211;-66
2022/11/27 03:36:16;;;;;;;2.50;2.30;;;;;;;;;;5060541;28;20237;-66
2022/11/27 03:38:45;;;;;;;2.20;2.00;;;;;;;;;;5060497;28;20283;-66
2022/11/27 03:41:19;;;;;;;2.17;2.08;;;;;;;;;;5056475;28;20198;-66
2022/11/27 03:43:51;;;;;;;2.67;2.17;;;;;;;;;;5040843;28;20210;-66
2022/11/27 03:46:24;;;;;;;2.33;2.13;;;;;;;;;;5040646;28;20205;-66
2022/11/27 03:48:54;;;;;;;2.30;2.10;;;;;;;;;;5040090;28;20216;-66
2022/11/27 03:51:28;;;;;;;2.50;2.30;;;;;;;;;;5045105;28;20200;-66
2022/11/27 03:54:00;;;;;;;2.40;2.20;;;;;;;;;;5060123;28;20294;-65
2022/11/27 03:56:34;;;;;;;2.45;2.25;;;;;;;;;;5060365;28;20213;-66
2022/11/27 03:59:04;;;;;;;2.25;2.05;;;;;;;;;;5060140;28;20270;-66
2022/11/27 04:01:32;;;;;;;2.05;1.85;;;;;;;;;;5053997;28;20237;-66
2022/11/27 04:04:00;;;;;;;2.17;1.90;;;;;;;;;;5039867;28;20217;-66
2022/11/27 04:06:29;;;;;;;2.50;2.30;;;;;;;;;;5040333;28;20300;-66
2022/11/27 04:08:57;;;;;;;2.10;2.00;;;;;;;;;;5040068;28;20212;-66
2022/11/27 04:11:25;;;;;;;2.13;2.00;;;;;;;;;;5044401;28;20197;-66
2022/11/27 04:13:52;;;;;;;2.20;2.00;;;;;;;;;;5060050;28;20817;-66
2022/11/27 04:16:20;;;;;;;2.28;2.08;;;;;;;;;;5059638;28;20205;-66
2022/11/27 04:18:48;;;;;;;2.25;2.00;;;;;;;;;;5059754;28;20236;-66
2022/11/27 04:21:17;;;;;;;1.85;1.75;;;;;;;;;;5055840;28;20204;-66
2022/11/27 04:23:46;;;;;;;1.77;1.67;;;;;;;;;;5039573;28;20205;-66
2022/11/27 04:26:13;;;;;;;1.88;1.77;;;;;;;;;;5039921;28;20524;-66
2022/11/27 04:28:41;;;;;;;1.75;1.63;;;;;;;;;;5039739;28;20559;-65
2022/11/27 04:31:09;;;;;;;2.00;1.80;;;;;;;;;;5041522;28;20627;-66
2022/11/27 04:33:37;;;;;;;2.10;1.98;;;;;;;;;;5058995;28;20302;-66
2022/11/27 04:36:05;;;;;;;2.00;1.90;;;;;;;;;;5059691;28;20299;-66
2022/11/27 04:38:32;;;;;;;1.95;1.75;;;;;;;;;;5059155;28;20507;-66
2022/11/27 04:41:02;;;;;;;1.90;1.77;;;;;;;;;;5058557;28;20205;-67
2022/11/27 04:43:29;;;;;;;2.03;1.88;;;;;;;;;;5039286;28;20237;-66
2022/11/27 04:45:57;;;;;;;1.90;1.80;;;;;;;;;;5039385;28;20217;-65
2022/11/27 04:48:25;;;;;;;2.28;2.00;;;;;;;;;;5039282;28;20206;-66
2022/11/27 04:50:55;;;;;;;2.17;1.98;;;;;;;;;;5039462;28;20698;-66
2022/11/27 04:53:22;;;;;;;1.73;1.63;;;;;;;;;;5058761;28;20255;-66
2022/11/27 04:55:52;;;;;;;1.98;1.88;;;;;;;;;;5059257;28;20204;-66
2022/11/27 04:58:21;;;;;;;1.80;1.70;;;;;;;;;;5058915;28;20255;-66
2022/11/27 05:00:48;;;;;;;1.75;1.65;;;;;;;;;;5058453;28;20268;-65
2022/11/27 05:03:15;;;;;;;1.80;1.70;;;;;;;;;;5039997;28;20206;-66
2022/11/27 05:05:43;;;;;;;1.92;1.83;;;;;;;;;;5039363;28;20466;-66
2022/11/27 05:08:10;;;;;;;1.90;1.80;;;;;;;;;;5039318;28;20216;-66
2022/11/27 05:10:37;;;;;;;1.70;1.60;;;;;;;;;;5038838;28;20202;-66
2022/11/27 05:13:05;;;;;;;1.80;1.70;;;;;;;;;;5038493;28;20202;-66
2022/11/27 05:15:34;;;;;;;1.85;1.75;;;;;;;;;;5038906;28;20220;-66
2022/11/27 05:18:01;;;;;;;1.73;1.63;;;;;;;;;;5038814;28;20228;-66
2022/11/27 05:20:29;;;;;;;1.75;1.65;;;;;;;;;;5038248;28;20532;-66
2022/11/27 05:22:56;;;;;;;1.90;1.80;;;;;;;;;;5053318;28;20488;-66
2022/11/27 05:25:23;;;;;;;1.70;1.60;;;;;;;;;;5058567;28;20205;-66
2022/11/27 05:27:51;;;;;;;2.08;1.98;;;;;;;;;;5058418;28;20201;-66
2022/11/27 05:30:19;;;;;;;1.70;1.60;;;;;;;;;;5058441;28;20211;-66
2022/11/27 05:32:47;;;;;;;1.88;1.77;;;;;;;;;;5043843;28;20194;-66
2022/11/27 05:35:15;;;;;;;1.65;1.55;;;;;;;;;;5038521;28;20213;-66
2022/11/27 05:37:42;;;;;;;1.50;1.40;;;;;;;;;;5038200;28;20205;-66
2022/11/27 05:40:10;;;;;;;1.80;1.70;;;;;;;;;;5038511;28;20255;-66
2022/11/27 05:42:38;;;;;;;1.85;1.73;;;;;;;;;;5050189;28;20312;-66
2022/11/27 05:45:05;;;;;;;1.60;1.50;;;;;;;;;;5057608;28;20212;-66
2022/11/27 05:47:33;;;;;;;1.70;1.60;;;;;;;;;;5057829;28;20204;-66
2022/11/27 05:50:01;;;;;;;1.90;1.80;;;;;;;;;;5058119;28;20640;-66
2022/11/27 05:52:29;;;;;;;1.90;1.80;;;;;;;;;;5046588;28;20213;-66
2022/11/27 05:54:57;;;;;;;1.90;1.80;;;;;;;;;;5038194;28;20206;-66
2022/11/27 05:57:24;;;;;;;1.80;1.70;;;;;;;;;;5038060;28;20217;-66
2022/11/27 05:59:51;;;;;;;1.60;1.50;;;;;;;;;;5037718;28;20244;-66
2022/11/27 06:02:19;;;;;;;1.83;1.67;;;;;;;;;;5046288;28;20584;-67
2022/11/27 06:04:46;;;;;;;1.77;1.67;;;;;;;;;;5057846;28;20617;-66
2022/11/27 06:07:15;;;;;;;1.40;1.30;;;;;;;;;;5057412;28;20205;-65
2022/11/27 06:09:43;;;;;;;1.80;1.63;;;;;;;;;;5057696;28;20208;-66
2022/11/27 06:12:10;;;;;;;1.67;1.58;;;;;;;;;;5049838;28;20202;-66
2022/11/27 06:14:37;;;;;;;1.77;1.67;;;;;;;;;;5037728;28;20311;-66
2022/11/27 06:17:05;;;;;;;1.65;1.55;;;;;;;;;;5037732;28;20209;-66
2022/11/27 06:19:32;;;;;;;1.70;1.60;;;;;;;;;;5037881;28;20237;-66
2022/11/27 06:22:00;;;;;;;1.60;1.50;;;;;;;;;;5037461;28;20197;-66
2022/11/27 06:24:29;;;;;;;1.58;1.48;;;;;;;;;;5037762;28;20205;-65
2022/11/27 06:26:56;;;;;;;1.75;1.65;;;;;;;;;;5037206;28;20216;-66
2022/11/27 06:29:24;;;;;;;1.70;1.60;;;;;;;;;;5037529;28;20202;-66
2022/11/27 06:31:51;;;;;;;1.80;1.70;;;;;;;;;;5041956;28;20197;-65
2022/11/27 06:34:19;;;;;;;1.80;1.70;;;;;;;;;;5056621;28;20205;-66
2022/11/27 06:36:48;;;;;;;1.77;1.67;;;;;;;;;;5057414;28;20205;-66
2022/11/27 06:39:15;;;;;;;1.70;1.60;;;;;;;;;;5057348;28;20229;-65
2022/11/27 06:41:44;;;;;;;1.85;1.75;;;;;;;;;;5053635;28;20503;-66
2022/11/27 06:44:11;;;;;;;1.60;1.50;;;;;;;;;;5037198;28;20205;-66
2022/11/27 06:46:39;;;;;;;1.60;1.50;;;;;;;;;;5036946;28;20205;-66
2022/11/27 06:49:06;;;;;;;1.52;1.42;;;;;;;;;;5037394;28;20216;-65
2022/11/27 06:51:34;;;;;;;1.70;1.60;;;;;;;;;;5038526;28;20209;-66
2022/11/27 06:54:01;;;;;;;1.70;1.60;;;;;;;;;;5057258;28;20204;-66
2022/11/27 06:56:30;;;;;;;1.85;1.60;;;;;;;;;;5056448;28;20207;-65
2022/11/27 06:59:00;;;;;;;1.80;1.70;;;;;;;;;;5056756;28;20220;-65
2022/11/27 07:01:28;;;;;;;1.70;1.60;;;;;;;;;;5056855;28;20532;-65
2022/11/27 07:03:57;;;;;;;1.88;1.65;;;;;;;;;;5056713;28;20207;-66
2022/11/27 07:06:25;;;;;;;1.85;1.75;;;;;;;;;;5056962;28;20645;-66
2022/11/27 07:08:52;;;;;;;1.65;1.55;;;;;;;;;;5057069;28;20236;-65
2022/11/27 07:11:21;;;;;;;1.73;1.50;;;;;;;;;;5056679;28;20211;-66
2022/11/27 07:13:49;;;;;;;1.75;1.65;;;;;;;;;;5056413;28;20500;-66
2022/11/27 07:16:18;;;;;;;1.52;1.42;;;;;;;;;;5056990;28;20205;-66
2022/11/27 07:18:47;;;;;;;1.50;1.40;;;;;;;;;;5056740;28;20205;-66
2022/11/27 07:21:14;;;;;;;1.58;1.48;;;;;;;;;;5056847;28;20227;-66
2022/11/27 07:23:42;;;;;;;1.52;1.42;;;;;;;;;;5037464;28;20212;-66
2022/11/27 07:26:10;;;;;;;1.60;1.50;;;;;;;;;;5036435;28;20579;-66
2022/11/27 07:28:38;;;;;;;1.90;1.80;;;;;;;;;;5037314;28;20649;-66
2022/11/27 07:31:06;;;;;;;1.48;1.38;;;;;;;;;;5036786;28;20499;-66
2022/11/27 07:33:34;;;;;;;1.52;1.42;;;;;;;;;;5053535;28;20216;-66
2022/11/27 07:36:03;;;;;;;1.63;1.52;;;;;;;;;;5056492;28;20484;-66
2022/11/27 07:38:30;;;;;;;1.77;1.67;;;;;;;;;;5056313;28;20197;-66
2022/11/27 07:41:00;;;;;;;2.08;1.73;;;;;;;;;;5056054;28;20225;-66
2022/11/27 07:43:28;;;;;;;1.70;1.60;;;;;;;;;;5038984;28;20281;-66
2022/11/27 07:45:55;;;;;;;1.65;1.55;;;;;;;;;;5039688;28;20205;-66
2022/11/27 07:48:23;;;;;;;1.65;1.55;;;;;;;;;;5040294;28;20206;-66
2022/11/27 07:50:52;;;;;;;1.55;1.45;;;;;;;;;;5039607;28;20193;-66
2022/11/27 07:53:19;;;;;;;1.50;1.40;;;;;;;;;;5053752;28;20204;-66
2022/11/27 07:55:46;;;;;;;2.03;1.50;;;;;;;;;;5059825;28;20208;-66
2022/11/27 07:58:14;;;;;;;1.60;1.50;;;;;;;;;;5059342;28;20215;-66
2022/11/27 08:00:41;;;;;;;1.58;1.48;;;;;;;;;;5059699;28;20240;-66
2022/11/27 08:03:09;;;;;;;1.60;1.50;;;;;;;;;;5046022;28;20208;-66
2022/11/27 08:05:37;;;;;;;1.80;1.70;;;;;;;;;;5039561;28;20212;-66
2022/11/27 08:08:06;;;;;;;1.80;1.70;;;;;;;;;;5039477;28;20212;-66
2022/11/27 08:10:35;;;;;;;1.70;1.58;;;;;;;;;;5040180;28;20503;-63
2022/11/27 08:13:03;;;;;;;2.00;1.58;;;;;;;;;;5039804;28;20289;-69
2022/11/27 08:15:30;;;;;;;1.70;1.60;;;;;;;;;;5039550;28;20217;-69
2022/11/27 08:17:58;;;;;;;1.95;1.77;;;;;;;;;;5039200;28;20216;-69
2022/11/27 08:20:25;;;;;;;1.63;1.52;;;;;;;;;;5039248;28;20252;-68
2022/11/27 08:22:52;;;;;;;1.88;1.50;;;;;;;;;;5049163;28;20590;-68
2022/11/27 08:25:21;;;;;;;1.73;1.63;;;;;;;;;;5058928;28;20227;-69
2022/11/27 08:27:49;;;;;;;1.60;1.50;;;;;;;;;;5058777;28;20226;-68
2022/11/27 08:30:16;;;;;;;1.50;1.40;;;;;;;;;;5058596;28;20212;-69
2022/11/27 08:32:44;;;;;;;1.70;1.60;;;;;;;;;;5049097;28;20202;-68
2022/11/27 08:35:12;;;;;;;1.75;1.65;;;;;;;;;;5038969;28;20206;-69
2022/11/27 08:37:39;;;;;;;1.50;1.40;;;;;;;;;;5039241;28;20530;-68
2022/11/27 08:40:08;;;;;;;2.53;1.70;;;;;;;;;;5038864;28;20649;-69
2022/11/27 08:42:37;;;;;;;1.70;1.60;;;;;;;;;;5046091;28;20208;-69
2022/11/27 08:45:05;;;;;;;1.55;1.45;;;;;;;;;;5058541;28;20204;-69
2022/11/27 08:47:32;;;;;;;1.70;1.60;;;;;;;;;;5058597;28;20275;-69
2022/11/27 08:50:00;;;;;;;2.03;1.73;;;;;;;;;;5057484;28;20209;-69
2022/11/27 08:52:27;;;;;;;1.90;1.70;;;;;;;;;;5051626;28;20609;-68
2022/11/27 08:54:55;;;;;;;2.22;2.05;;;;;;;;;;5038318;28;20232;-68
2022/11/27 08:57:22;;;;;;;1.85;1.75;;;;;;;;;;5036756;28;20198;-69
2022/11/27 08:59:51;;;;;;;1.98;1.80;;;;;;;;;;5037472;28;20238;-69
2022/11/27 09:02:19;;;;;;;1.58;1.45;;;;;;;;;;5042647;28;20215;-69
2022/11/27 09:04:46;;;;;;;1.60;1.50;;;;;;;;;;5057512;28;20216;-69
2022/11/27 09:07:15;;;;;;;1.80;1.70;;;;;;;;;;5058042;28;20205;-69
2022/11/27 09:09:43;;;;;;;1.75;1.65;;;;;;;;;;5057732;28;20209;-69
2022/11/27 09:12:11;;;;;;;1.70;1.60;;;;;;;;;;5054207;28;20198;-69
2022/11/27 09:14:38;;;;;;;1.60;1.50;;;;;;;;;;5037637;28;20205;-68
2022/11/27 09:17:07;;;;;;;1.67;1.58;;;;;;;;;;5038023;28;20213;-68
2022/11/27 09:19:34;;;;;;;1.80;1.70;;;;;;;;;;5037870;28;20220;-69
2022/11/27 09:22:02;;;;;;;1.85;1.67;;;;;;;;;;5039115;28;20229;-69
2022/11/27 09:24:29;;;;;;;2.28;1.50;;;;;;;;;;5057551;28;20591;-68
2022/11/27 09:26:56;;;;;;;2.20;2.00;;;;;;;;;;5057611;28;20201;-68
2022/11/27 09:29:24;;;;;;;2.10;1.90;;;;;;;;;;5057856;28;20212;-69
2022/11/27 09:31:51;;;;;;;1.85;1.75;;;;;;;;;;5056573;28;20204;-69
2022/11/27 09:34:20;;;;;;;2.10;1.70;;;;;;;;;;5037125;28;20209;-68
2022/11/27 09:36:49;;;;;;;2.10;1.90;;;;;;;;;;5037707;28;20216;-69
2022/11/27 09:39:18;;;;;;;1.73;1.63;;;;;;;;;;5037256;28;20449;-68
2022/11/27 09:41:47;;;;;;;1.92;1.83;;;;;;;;;;5037182;28;20234;-68
2022/11/27 09:44:19;;;;;;;2.08;1.98;;;;;;;;;;5056245;28;20232;-68
2022/11/27 09:46:48;;;;;;;1.70;1.60;;;;;;;;;;5056823;28;20205;-68
2022/11/27 09:49:18;;;;;;;1.90;1.80;;;;;;;;;;5057149;28;20622;-68
2022/11/27 09:51:50;;;;;;;2.50;2.30;;;;;;;;;;5056410;28;20208;-68
2022/11/27 09:54:20;;;;;;;1.83;1.73;;;;;;;;;;5036359;28;20201;-68
2022/11/27 09:56:50;;;;;;;1.90;1.80;;;;;;;;;;5036733;28;20216;-68
2022/11/27 09:59:18;;;;;;;2.42;2.22;;;;;;;;;;5036778;28;20210;-68
2022/11/27 10:01:46;;;;;;;1.80;1.70;;;;;;;;;;5047950;28;20229;-69
2022/11/27 10:04:17;;;;;;;2.08;1.88;;;;;;;;;;5055734;28;20575;-69
2022/11/27 10:06:50;;;;;;;2.70;2.50;;;;;;;;;;5056326;28;20204;-69
2022/11/27 10:09:22;;;;;;;3.55;2.75;;;;;;;;;;5056917;28;20197;-69
2022/11/27 10:11:54;;;;;;;2.38;2.20;;;;;;;;;;5043982;28;20198;-68
2022/11/27 10:14:39;;;;;;;2.53;2.33;;;;;;;;;;5036470;28;20480;-68
2022/11/27 10:17:09;;;;;;;2.80;2.60;;;;;;;;;;5035858;28;20216;-69
2022/11/27 10:19:45;;;;;;;2.45;2.25;;;;;;;;;;5036774;28;20205;-69
2022/11/27 10:22:16;;;;;;;2.50;2.30;;;;;;;;;;5035853;28;20247;-68
2022/11/27 10:24:52;;;;;;;2.60;2.40;;;;;;;;;;5035913;28;20567;-68
2022/11/27 10:27:22;;;;;;;22.42;20.10;;;;;;;;;;5036764;28;20205;-68
2022/11/27 10:29:52;;;;;;;16.52;14.95;;;;;;;;;;5036408;28;20205;-69
2022/11/27 10:32:20;;;;;;;15.95;14.48;;;;;;;;;;5051882;28;20259;-69
2022/11/27 10:34:49;;;;;;;13.73;12.43;;;;;;;;;;5055605;28;20221;-69
2022/11/27 10:37:18;;;;;;;12.93;11.73;;;;;;;;;;5055521;28;20216;-68
2022/11/27 10:39:49;;;;;;;12.50;11.30;;;;;;;;;;5055667;28;20205;-69
2022/11/27 10:42:20;;;;;;;13.30;11.93;;;;;;;;;;5039668;28;20510;-69
2022/11/27 10:44:50;;;;;;;12.48;11.27;;;;;;;;;;5035031;28;20292;-68
2022/11/27 10:47:18;;;;;;;12.43;11.23;;;;;;;;;;5035571;28;20255;-68
2022/11/27 10:49:45;;;;;;;11.27;10.27;;;;;;;;;;5035626;28;20220;-69
2022/11/27 10:52:14;;;;;;;10.93;9.90;;;;;;;;;;5049135;28;20207;-68
2022/11/27 10:54:42;;;;;;;11.15;10.15;;;;;;;;;;5055581;28;20213;-68
2022/11/27 10:57:17;;;;;;;10.88;9.88;;;;;;;;;;5055526;28;20207;-68
2022/11/27 10:59:47;;;;;;;9.98;8.98;;;;;;;;;;5054984;28;20426;-68
2022/11/27 11:02:28;;;;;;;9.43;8.52;;;;;;;;;;5040409;28;20235;-67
2022/11/27 11:04:56;;;;;;;9.38;8.40;;;;;;;;;;5034928;28;20216;-67
2022/11/27 11:07:25;;;;;;;8.60;7.80;;;;;;;;;;5035331;28;20206;-68
2022/11/27 11:09:53;;;;;;;8.68;7.88;;;;;;;;;;5034829;28;20214;-68
2022/11/27 11:12:23;;;;;;;7.95;7.15;;;;;;;;;;5049982;28;20235;-68
2022/11/27 11:14:52;;;;;;;7.20;6.50;;;;;;;;;;5054683;28;20197;-68
2022/11/27 11:17:25;;;;;;;7.60;6.70;;;;;;;;;;5055273;28;20227;-68
2022/11/27 11:19:54;;;;;;;7.43;6.70;;;;;;;;;;5056280;28;20201;-68
2022/11/27 11:22:22;;;;;;;6.60;5.90;;;;;;;;;;5043636;28;20217;-66
2022/11/27 11:24:50;;;;;;;6.63;5.93;;;;;;;;;;5038572;28;20217;-66
2022/11/27 11:27:21;;;;;;;5.93;5.43;;;;;;;;;;5039011;28;20205;-66
2022/11/27 11:29:50;;;;;;;6.40;5.88;;;;;;;;;;5039903;28;20217;-66
2022/11/27 11:32:29;;;;;;;5.90;5.40;;;;;;;;;;5040490;28;20197;-66
2022/11/27 11:34:58;;;;;;;5.97;5.47;;;;;;;;;;5039417;28;20204;-66
2022/11/27 11:37:27;;;;;;;5.40;4.90;;;;;;;;;;5038732;28;20206;-66
2022/11/27 11:39:57;;;;;;;5.80;5.30;;;;;;;;;;5038903;28;20214;-66
2022/11/27 11:42:26;;;;;;;6.07;4.65;;;;;;;;;;5051497;28;20229;-66
2022/11/27 11:44:56;;;;;;;5.15;4.75;;;;;;;;;;5058803;28;20213;-66
2022/11/27 11:47:25;;;;;;;4.97;4.57;;;;;;;;;;5058760;28;20211;-66
2022/11/27 11:49:53;;;;;;;4.53;4.13;;;;;;;;;;5058634;28;20213;-66
2022/11/27 11:52:28;;;;;;;4.97;4.47;;;;;;;;;;5045988;28;20229;-66
2022/11/27 11:54:59;;;;;;;4.40;4.00;;;;;;;;;;5037873;28;20303;-66
2022/11/27 11:57:39;;;;;;;4.80;4.40;;;;;;;;;;5037687;28;20209;-66
2022/11/27 12:00:10;;;;;;;4.80;4.32;;;;;;;;;;5039070;28;20244;-66
2022/11/27 12:02:43;;;;;;;4.72;4.32;;;;;;;;;;5052101;28;20225;-66
2022/11/27 12:05:16;;;;;;;4.20;3.80;;;;;;;;;;5058180;28;20303;-66
2022/11/27 12:07:53;;;;;;;4.03;3.72;;;;;;;;;;5058253;28;20216;-66
2022/11/27 12:10:23;;;;;;;4.00;3.70;;;;;;;;;;5058634;28;20204;-66
2022/11/27 12:12:56;;;;;;;4.25;3.85;;;;;;;;;;5042282;28;20190;-66
2022/11/27 12:15:27;;;;;;;4.32;3.42;;;;;;;;;;5038700;28;20205;-66
2022/11/27 12:18:00;;;;;;;4.25;3.60;;;;;;;;;;5037959;28;20232;-66
2022/11/27 12:20:32;;;;;;;3.70;3.30;;;;;;;;;;5057780;28;20482;-66
2022/11/27 12:23:20;;;;;;;3.55;3.25;;;;;;;;;;5057215;28;20232;-66
2022/11/27 12:25:52;;;;;;;3.55;3.15;;;;;;;;;;5058051;28;20213;-66
2022/11/27 12:28:29;;;;;;;3.33;3.03;;;;;;;;;;5057371;28;20227;-66
2022/11/27 12:31:04;;;;;;;3.63;3.05;;;;;;;;;;5056731;28;20693;-66
2022/11/27 12:33:38;;;;;;;3.45;3.10;;;;;;;;;;5037558;28;20614;-66
2022/11/27 12:36:09;;;;;;;3.53;3.22;;;;;;;;;;5037625;28;20205;-66
2022/11/27 12:38:43;;;;;;;3.42;3.17;;;;;;;;;;5037746;28;20232;-66
2022/11/27 12:41:21;;;;;;;3.30;2.97;;;;;;;;;;5038151;28;20231;-66
2022/11/27 12:43:50;;;;;;;3.20;2.70;;;;;;;;;;5056810;28;20207;-66
2022/11/27 12:46:22;;;;;;;3.33;3.05;;;;;;;;;;5057208;28;20209;-65
2022/11/27 12:48:52;;;;;;;2.95;2.75;;;;;;;;;;5057878;28;20300;-66
2022/11/27 12:51:21;;;;;;;5.07;4.68;;;;;;;;;;5054365;28;20211;-66
2022/11/27 12:53:51;;;;;;;8.68;7.93;;;;;;;;;;5036600;28;20312;-66
2022/11/27 12:56:23;;;;;;;7.30;6.70;;;;;;;;;;5037048;28;20271;-66
2022/11/27 12:58:53;;;;;;;7.15;6.45;;;;;;;;;;5037225;28;20210;-66
2022/11/27 13:01:25;;;;;;;6.20;5.70;;;;;;;;;;5038741;28;20237;-65
2022/11/27 13:04:00;;;;;;;6.20;5.68;;;;;;;;;;5056050;28;20205;-66
2022/11/27 13:06:30;;;;;;;6.35;5.75;;;;;;;;;;5056062;28;20204;-66
2022/11/27 13:09:00;;;;;;;6.00;5.50;;;;;;;;;;5055882;28;20211;-66
2022/11/27 13:11:30;;;;;;;6.35;5.78;;;;;;;;;;5053311;28;20202;-66
2022/11/27 13:14:00;;;;;;;6.00;5.50;;;;;;;;;;5036675;28;20228;-66
2022/11/27 13:16:32;;;;;;;6.22;5.63;;;;;;;;;;5050963;28;20201;-66
2022/11/27 13:19:02;;;;;;;5.70;5.30;;;;;;;;;;5055300;28;20543;-66
2022/11/27 13:21:31;;;;;;;5.60;5.05;;;;;;;;;;5052008;28;20217;-66
2022/11/27 13:24:01;;;;;;;5.10;4.70;;;;;;;;;;5036153;28;20207;-66
2022/11/27 13:26:31;;;;;;;5.15;4.75;;;;;;;;;;5035707;28;20292;-66
2022/11/27 13:29:00;;;;;;;5.32;4.82;;;;;;;;;;5035901;28;20202;-66
2022/11/27 13:31:30;;;;;;;4.95;4.55;;;;;;;;;;5038983;28;20194;-66
2022/11/27 13:34:00;;;;;;;4.72;4.43;;;;;;;;;;5055764;28;20201;-66
2022/11/27 13:36:28;;;;;;;4.68;4.28;;;;;;;;;;5056037;28;20205;-66
2022/11/27 13:38:57;;;;;;;4.50;4.15;;;;;;;;;;5055864;28;20201;-66
2022/11/27 13:41:25;;;;;;;4.82;4.43;;;;;;;;;;5052932;28;20707;-66
2022/11/27 13:43:53;;;;;;;4.57;4.18;;;;;;;;;;5034690;28;20243;-66
2022/11/27 13:46:23;;;;;;;4.60;4.20;;;;;;;;;;5035115;28;20206;-67
2022/11/27 13:48:54;;;;;;;4.53;4.13;;;;;;;;;;5035856;28;20228;-66
2022/11/27 13:51:27;;;;;;;4.43;4.10;;;;;;;;;;5037104;28;20212;-66
2022/11/27 13:53:55;;;;;;;4.10;3.80;;;;;;;;;;5055477;28;20693;-66
2022/11/27 13:56:31;;;;;;;4.30;4.00;;;;;;;;;;5055649;28;20219;-66
2022/11/27 13:58:59;;;;;;;4.38;3.97;;;;;;;;;;5055264;28;20201;-66
2022/11/27 14:01:26;;;;;;;4.10;3.80;;;;;;;;;;5052333;28;20243;-66
2022/11/27 14:03:55;;;;;;;4.53;4.10;;;;;;;;;;5034070;28;20272;-66
2022/11/27 14:06:24;;;;;;;4.13;3.83;;;;;;;;;;5034562;28;20198;-66
2022/11/27 14:08:57;;;;;;;3.90;3.58;;;;;;;;;;5034917;28;20205;-66
2022/11/27 14:11:33;;;;;;;3.72;3.42;;;;;;;;;;5036590;28;20220;-66
2022/11/27 14:14:01;;;;;;;4.05;3.75;;;;;;;;;;5053947;28;20212;-66
2022/11/27 14:16:29;;;;;;;3.88;3.45;;;;;;;;;;5054770;28;20209;-66
2022/11/27 14:18:59;;;;;;;3.90;3.60;;;;;;;;;;5054300;28;20205;-66
2022/11/27 14:21:34;;;;;;;4.18;3.88;;;;;;;;;;5051988;28;20236;-66
2022/11/27 14:24:04;;;;;;;3.80;3.50;;;;;;;;;;5034601;28;20205;-66
2022/11/27 14:26:32;;;;;;;3.95;3.65;;;;;;;;;;5035116;28;20512;-66
2022/11/27 14:29:01;;;;;;;3.72;3.42;;;;;;;;;;5034723;28;20220;-66
2022/11/27 14:31:29;;;;;;;3.70;3.42;;;;;;;;;;5035538;28;20205;-66
2022/11/27 14:33:57;;;;;;;3.80;3.50;;;;;;;;;;5054559;28;20208;-66
2022/11/27 14:36:27;;;;;;;3.78;3.47;;;;;;;;;;5054450;28;20215;-66
2022/11/27 14:38:54;;;;;;;3.60;3.30;;;;;;;;;;5053882;28;20270;-66
2022/11/27 14:41:25;;;;;;;3.75;3.45;;;;;;;;;;5052946;28;20209;-66
2022/11/27 14:44:00;;;;;;;3.63;3.33;;;;;;;;;;5033582;28;20229;-66
2022/11/27 14:46:28;;;;;;;3.45;3.15;;;;;;;;;;5034222;28;20220;-66
2022/11/27 14:48:56;;;;;;;3.40;3.10;;;;;;;;;;5034633;28;20220;-66
2022/11/27 14:51:25;;;;;;;5.07;4.57;;;;;;;;;;5033589;28;20229;-66
2022/11/27 14:53:55;;;;;;;7.25;6.55;;;;;;;;;;5032865;28;20210;-66
2022/11/27 14:56:23;;;;;;;6.68;5.65;;;;;;;;;;5034346;28;20208;-66